Terminal Aerodrome Forecast
Issued by NWS Jacksonville, FL

Home | Current Version | Previous Version | Text Only | Print | Product List | Glossary On
Versions: 1 2 3 4 5 6 7 8 9 10 11 12 13 14 15 16 17
000
FTUS42 KJAX 231700
TAFJAX
TAF
KJAX 231729Z 2318/2418 17008KT P6SM BKN025
     FM232200 18015KT P6SM VCTS SCT025CB BKN250
     FM240000 19012KT P6SM SCT025 BKN100
     FM240600 19008KT 4SM BR BKN009
     FM241600 21012KT P6SM BKN015=

USA.gov is the U.S. government's official web portal to all federal, state and local government web resources and services.